sensor_id;sensor_type;location;lat;lon;timestamp;P1;durP1;ratioP1;P2;durP2;ratioP2
78716;SDS011;68045;50.042;14.432;2023-05-20T00:02:42;29.20;;;14.63;;
78716;SDS011;68045;50.042;14.432;2023-05-20T00:06:43;25.65;;;12.68;;
78716;SDS011;68045;50.042;14.432;2023-05-20T00:10:44;29.70;;;15.23;;
78716;SDS011;68045;50.042;14.432;2023-05-20T00:14:45;30.20;;;15.02;;
78716;SDS011;68045;50.042;14.432;2023-05-20T00:18:45;27.10;;;13.82;;
78716;SDS011;68045;50.042;14.432;2023-05-20T00:22:46;31.80;;;14.73;;
78716;SDS011;68045;50.042;14.432;2023-05-20T00:26:47;33.58;;;14.43;;
78716;SDS011;68045;50.042;14.432;2023-05-20T00:30:48;27.90;;;15.15;;
78716;SDS011;68045;50.042;14.432;2023-05-20T00:34:56;28.58;;;15.10;;
78716;SDS011;68045;50.042;14.432;2023-05-20T00:38:57;28.70;;;14.93;;
78716;SDS011;68045;50.042;14.432;2023-05-20T00:42:58;26.88;;;14.75;;
78716;SDS011;68045;50.042;14.432;2023-05-20T00:47:00;28.40;;;14.82;;
78716;SDS011;68045;50.042;14.432;2023-05-20T00:51:01;30.20;;;13.48;;
78716;SDS011;68045;50.042;14.432;2023-05-20T00:55:04;33.95;;;14.75;;
78716;SDS011;68045;50.042;14.432;2023-05-20T00:59:05;33.15;;;15.20;;
78716;SDS011;68045;50.042;14.432;2023-05-20T01:03:06;26.50;;;14.07;;
78716;SDS011;68045;50.042;14.432;2023-05-20T01:07:07;25.92;;;14.10;;
78716;SDS011;68045;50.042;14.432;2023-05-20T01:11:20;28.52;;;15.88;;
78716;SDS011;68045;50.042;14.432;2023-05-20T01:15:26;28.05;;;13.65;;
78716;SDS011;68045;50.042;14.432;2023-05-20T01:19:35;30.10;;;15.45;;
78716;SDS011;68045;50.042;14.432;2023-05-20T01:23:41;30.15;;;14.90;;
78716;SDS011;68045;50.042;14.432;2023-05-20T01:27:42;28.08;;;14.75;;
78716;SDS011;68045;50.042;14.432;2023-05-20T01:31:44;25.25;;;14.38;;
78716;SDS011;68045;50.042;14.432;2023-05-20T01:35:47;27.67;;;13.98;;
78716;SDS011;68045;50.042;14.432;2023-05-20T01:39:49;37.80;;;15.90;;
78716;SDS011;68045;50.042;14.432;2023-05-20T01:43:53;26.17;;;13.98;;
78716;SDS011;68045;50.042;14.432;2023-05-20T01:47:55;29.20;;;14.70;;
78716;SDS011;68045;50.042;14.432;2023-05-20T01:51:56;28.20;;;14.75;;
78716;SDS011;68045;50.042;14.432;2023-05-20T01:55:57;29.27;;;14.77;;
78716;SDS011;68045;50.042;14.432;2023-05-20T01:59:59;32.33;;;15.32;;
78716;SDS011;68045;50.042;14.432;2023-05-20T02:04:00;31.23;;;14.35;;
78716;SDS011;68045;50.042;14.432;2023-05-20T02:08:01;26.35;;;14.18;;
78716;SDS011;68045;50.042;14.432;2023-05-20T02:12:02;30.30;;;14.35;;
78716;SDS011;68045;50.042;14.432;2023-05-20T02:16:03;25.35;;;13.15;;
78716;SDS011;68045;50.042;14.432;2023-05-20T02:20:05;26.55;;;13.20;;
78716;SDS011;68045;50.042;14.432;2023-05-20T02:24:08;27.67;;;14.60;;
78716;SDS011;68045;50.042;14.432;2023-05-20T02:28:09;34.55;;;14.90;;
78716;SDS011;68045;50.042;14.432;2023-05-20T02:32:10;27.27;;;14.13;;
78716;SDS011;68045;50.042;14.432;2023-05-20T02:36:11;30.80;;;14.45;;
78716;SDS011;68045;50.042;14.432;2023-05-20T02:40:12;29.83;;;13.65;;
78716;SDS011;68045;50.042;14.432;2023-05-20T02:44:13;31.80;;;15.05;;
78716;SDS011;68045;50.042;14.432;2023-05-20T02:48:15;31.83;;;14.32;;
78716;SDS011;68045;50.042;14.432;2023-05-20T02:52:15;31.27;;;15.00;;
78716;SDS011;68045;50.042;14.432;2023-05-20T02:56:16;28.50;;;14.23;;
78716;SDS011;68045;50.042;14.432;2023-05-20T03:00:21;32.58;;;14.18;;
78716;SDS011;68045;50.042;14.432;2023-05-20T03:04:23;26.92;;;13.60;;
78716;SDS011;68045;50.042;14.432;2023-05-20T03:08:26;27.10;;;14.23;;
78716;SDS011;68045;50.042;14.432;2023-05-20T03:12:27;28.27;;;14.93;;
78716;SDS011;68045;50.042;14.432;2023-05-20T03:16:29;31.95;;;15.27;;
78716;SDS011;68045;50.042;14.432;2023-05-20T03:20:31;26.13;;;13.55;;
78716;SDS011;68045;50.042;14.432;2023-05-20T03:24:32;32.95;;;15.60;;
78716;SDS011;68045;50.042;14.432;2023-05-20T03:28:34;29.35;;;14.48;;
78716;SDS011;68045;50.042;14.432;2023-05-20T03:32:36;30.90;;;15.00;;
78716;SDS011;68045;50.042;14.432;2023-05-20T03:36:36;27.45;;;14.25;;
78716;SDS011;68045;50.042;14.432;2023-05-20T03:40:37;27.45;;;14.55;;
78716;SDS011;68045;50.042;14.432;2023-05-20T03:44:39;29.30;;;15.10;;
78716;SDS011;68045;50.042;14.432;2023-05-20T03:48:41;30.95;;;15.13;;
78716;SDS011;68045;50.042;14.432;2023-05-20T03:52:42;30.35;;;15.15;;
78716;SDS011;68045;50.042;14.432;2023-05-20T03:56:43;30.98;;;14.98;;
78716;SDS011;68045;50.042;14.432;2023-05-20T04:00:47;28.98;;;14.85;;
78716;SDS011;68045;50.042;14.432;2023-05-20T04:04:48;25.40;;;13.88;;
78716;SDS011;68045;50.042;14.432;2023-05-20T04:08:53;28.58;;;15.13;;
78716;SDS011;68045;50.042;14.432;2023-05-20T04:12:55;28.42;;;14.05;;
78716;SDS011;68045;50.042;14.432;2023-05-20T04:16:56;28.85;;;14.95;;
78716;SDS011;68045;50.042;14.432;2023-05-20T04:20:57;29.85;;;15.10;;
78716;SDS011;68045;50.042;14.432;2023-05-20T04:25:01;31.45;;;16.15;;
78716;SDS011;68045;50.042;14.432;2023-05-20T04:29:04;28.60;;;15.25;;
78716;SDS011;68045;50.042;14.432;2023-05-20T04:33:07;32.20;;;15.25;;
78716;SDS011;68045;50.042;14.432;2023-05-20T04:37:08;29.13;;;14.48;;
78716;SDS011;68045;50.042;14.432;2023-05-20T04:41:09;25.85;;;13.75;;
78716;SDS011;68045;50.042;14.432;2023-05-20T04:45:11;29.42;;;15.27;;
78716;SDS011;68045;50.042;14.432;2023-05-20T04:49:14;25.85;;;14.60;;
78716;SDS011;68045;50.042;14.432;2023-05-20T04:53:15;28.67;;;15.10;;
78716;SDS011;68045;50.042;14.432;2023-05-20T04:57:17;26.38;;;13.80;;
78716;SDS011;68045;50.042;14.432;2023-05-20T05:01:20;28.55;;;13.52;;
78716;SDS011;68045;50.042;14.432;2023-05-20T05:05:21;24.38;;;13.85;;
78716;SDS011;68045;50.042;14.432;2023-05-20T05:09:22;29.00;;;13.93;;
78716;SDS011;68045;50.042;14.432;2023-05-20T05:13:23;26.65;;;14.60;;
78716;SDS011;68045;50.042;14.432;2023-05-20T05:17:24;24.90;;;14.60;;
78716;SDS011;68045;50.042;14.432;2023-05-20T05:21:25;28.15;;;15.23;;
78716;SDS011;68045;50.042;14.432;2023-05-20T05:25:26;25.48;;;14.50;;
78716;SDS011;68045;50.042;14.432;2023-05-20T05:29:27;25.95;;;13.93;;
78716;SDS011;68045;50.042;14.432;2023-05-20T05:33:28;23.83;;;13.55;;
78716;SDS011;68045;50.042;14.432;2023-05-20T05:37:30;26.70;;;13.93;;
78716;SDS011;68045;50.042;14.432;2023-05-20T05:41:31;22.65;;;13.18;;
78716;SDS011;68045;50.042;14.432;2023-05-20T05:45:32;24.17;;;12.73;;
78716;SDS011;68045;50.042;14.432;2023-05-20T05:49:34;26.70;;;13.85;;
78716;SDS011;68045;50.042;14.432;2023-05-20T05:53:34;24.08;;;13.40;;
78716;SDS011;68045;50.042;14.432;2023-05-20T05:57:37;21.92;;;13.07;;
78716;SDS011;68045;50.042;14.432;2023-05-20T06:01:39;23.63;;;13.05;;
78716;SDS011;68045;50.042;14.432;2023-05-20T06:05:40;25.38;;;14.15;;
78716;SDS011;68045;50.042;14.432;2023-05-20T06:09:45;26.23;;;13.52;;
78716;SDS011;68045;50.042;14.432;2023-05-20T06:13:46;23.63;;;13.25;;
78716;SDS011;68045;50.042;14.432;2023-05-20T06:17:47;24.73;;;13.80;;
78716;SDS011;68045;50.042;14.432;2023-05-20T06:21:49;26.13;;;13.68;;
78716;SDS011;68045;50.042;14.432;2023-05-20T06:25:51;23.67;;;13.60;;
78716;SDS011;68045;50.042;14.432;2023-05-20T06:29:53;23.65;;;13.93;;
78716;SDS011;68045;50.042;14.432;2023-05-20T06:33:54;23.10;;;13.25;;
78716;SDS011;68045;50.042;14.432;2023-05-20T06:37:55;27.48;;;14.20;;
78716;SDS011;68045;50.042;14.432;2023-05-20T06:41:56;26.15;;;14.65;;
78716;SDS011;68045;50.042;14.432;2023-05-20T06:46:04;26.83;;;14.82;;
78716;SDS011;68045;50.042;14.432;2023-05-20T06:50:11;24.60;;;12.73;;
78716;SDS011;68045;50.042;14.432;2023-05-20T06:54:12;28.35;;;14.55;;
78716;SDS011;68045;50.042;14.432;2023-05-20T06:58:13;26.45;;;13.95;;
78716;SDS011;68045;50.042;14.432;2023-05-20T07:02:14;26.73;;;13.52;;
78716;SDS011;68045;50.042;14.432;2023-05-20T07:06:16;27.88;;;13.60;;
78716;SDS011;68045;50.042;14.432;2023-05-20T07:10:19;26.33;;;13.63;;
78716;SDS011;68045;50.042;14.432;2023-05-20T07:14:19;25.55;;;14.00;;
78716;SDS011;68045;50.042;14.432;2023-05-20T07:18:21;26.33;;;14.05;;
78716;SDS011;68045;50.042;14.432;2023-05-20T07:22:27;24.83;;;13.88;;
78716;SDS011;68045;50.042;14.432;2023-05-20T07:26:54;24.15;;;12.82;;
78716;SDS011;68045;50.042;14.432;2023-05-20T07:30:55;21.10;;;13.13;;
78716;SDS011;68045;50.042;14.432;2023-05-20T07:35:02;23.95;;;12.82;;
78716;SDS011;68045;50.042;14.432;2023-05-20T07:39:04;22.98;;;13.88;;
78716;SDS011;68045;50.042;14.432;2023-05-20T07:43:08;22.92;;;13.55;;
78716;SDS011;68045;50.042;14.432;2023-05-20T07:47:12;22.15;;;13.80;;
78716;SDS011;68045;50.042;14.432;2023-05-20T07:51:13;22.80;;;13.70;;
78716;SDS011;68045;50.042;14.432;2023-05-20T07:55:14;24.08;;;13.88;;
78716;SDS011;68045;50.042;14.432;2023-05-20T07:59:15;24.30;;;14.00;;
78716;SDS011;68045;50.042;14.432;2023-05-20T08:03:19;22.83;;;12.85;;
78716;SDS011;68045;50.042;14.432;2023-05-20T08:07:41;20.55;;;13.07;;
78716;SDS011;68045;50.042;14.432;2023-05-20T08:11:44;22.83;;;13.32;;
78716;SDS011;68045;50.042;14.432;2023-05-20T08:15:45;20.77;;;12.85;;
78716;SDS011;68045;50.042;14.432;2023-05-20T08:19:49;22.98;;;14.93;;
78716;SDS011;68045;50.042;14.432;2023-05-20T08:23:49;20.02;;;12.05;;
78716;SDS011;68045;50.042;14.432;2023-05-20T08:27:51;22.60;;;12.57;;
78716;SDS011;68045;50.042;14.432;2023-05-20T08:31:52;20.20;;;12.07;;
78716;SDS011;68045;50.042;14.432;2023-05-20T08:35:54;22.77;;;13.05;;
78716;SDS011;68045;50.042;14.432;2023-05-20T08:39:55;21.23;;;12.30;;
78716;SDS011;68045;50.042;14.432;2023-05-20T08:43:57;26.02;;;11.82;;
78716;SDS011;68045;50.042;14.432;2023-05-20T08:48:00;18.00;;;12.40;;
78716;SDS011;68045;50.042;14.432;2023-05-20T08:52:04;18.25;;;12.00;;
78716;SDS011;68045;50.042;14.432;2023-05-20T08:56:09;18.90;;;11.68;;
78716;SDS011;68045;50.042;14.432;2023-05-20T09:00:12;22.75;;;12.55;;
78716;SDS011;68045;50.042;14.432;2023-05-20T09:04:15;19.23;;;12.55;;
78716;SDS011;68045;50.042;14.432;2023-05-20T09:08:16;21.70;;;12.35;;
78716;SDS011;68045;50.042;14.432;2023-05-20T09:12:16;21.20;;;11.63;;
78716;SDS011;68045;50.042;14.432;2023-05-20T09:16:17;20.73;;;12.60;;
78716;SDS011;68045;50.042;14.432;2023-05-20T09:20:20;17.63;;;11.73;;
78716;SDS011;68045;50.042;14.432;2023-05-20T09:24:22;19.08;;;11.57;;
78716;SDS011;68045;50.042;14.432;2023-05-20T09:28:24;17.73;;;11.13;;
78716;SDS011;68045;50.042;14.432;2023-05-20T09:32:25;16.80;;;10.63;;
78716;SDS011;68045;50.042;14.432;2023-05-20T09:36:28;17.75;;;10.52;;
78716;SDS011;68045;50.042;14.432;2023-05-20T09:40:31;15.13;;;9.88;;
78716;SDS011;68045;50.042;14.432;2023-05-20T09:44:33;19.05;;;10.63;;
78716;SDS011;68045;50.042;14.432;2023-05-20T09:48:35;17.73;;;11.38;;
78716;SDS011;68045;50.042;14.432;2023-05-20T09:52:37;18.58;;;10.95;;
78716;SDS011;68045;50.042;14.432;2023-05-20T09:56:39;16.00;;;10.52;;
78716;SDS011;68045;50.042;14.432;2023-05-20T10:00:41;16.35;;;10.48;;
78716;SDS011;68045;50.042;14.432;2023-05-20T10:04:43;14.82;;;10.15;;
78716;SDS011;68045;50.042;14.432;2023-05-20T10:13:03;15.43;;;10.25;;
78716;SDS011;68045;50.042;14.432;2023-05-20T10:22:04;17.58;;;11.10;;
78716;SDS011;68045;50.042;14.432;2023-05-20T10:26:09;15.90;;;9.95;;
78716;SDS011;68045;50.042;14.432;2023-05-20T10:30:14;17.30;;;11.10;;
78716;SDS011;68045;50.042;14.432;2023-05-20T10:34:20;13.60;;;9.70;;
78716;SDS011;68045;50.042;14.432;2023-05-20T10:38:22;12.30;;;9.15;;
78716;SDS011;68045;50.042;14.432;2023-05-20T10:42:27;13.60;;;9.18;;
78716;SDS011;68045;50.042;14.432;2023-05-20T10:46:30;15.23;;;9.63;;
78716;SDS011;68045;50.042;14.432;2023-05-20T10:50:35;13.95;;;11.25;;
78716;SDS011;68045;50.042;14.432;2023-05-20T10:54:53;15.45;;;11.00;;
78716;SDS011;68045;50.042;14.432;2023-05-20T10:58:55;14.48;;;10.75;;
78716;SDS011;68045;50.042;14.432;2023-05-20T11:02:57;16.75;;;11.43;;
78716;SDS011;68045;50.042;14.432;2023-05-20T11:06:58;15.68;;;10.98;;
78716;SDS011;68045;50.042;14.432;2023-05-20T11:10:59;16.10;;;11.02;;
78716;SDS011;68045;50.042;14.432;2023-05-20T11:15:00;17.42;;;11.05;;
78716;SDS011;68045;50.042;14.432;2023-05-20T11:19:02;29.15;;;10.50;;
78716;SDS011;68045;50.042;14.432;2023-05-20T11:23:04;13.90;;;9.88;;
78716;SDS011;68045;50.042;14.432;2023-05-20T11:27:06;13.93;;;9.88;;
78716;SDS011;68045;50.042;14.432;2023-05-20T11:31:07;13.57;;;10.55;;
78716;SDS011;68045;50.042;14.432;2023-05-20T11:35:18;14.80;;;11.20;;
78716;SDS011;68045;50.042;14.432;2023-05-20T11:43:24;14.98;;;10.10;;
78716;SDS011;68045;50.042;14.432;2023-05-20T11:47:25;13.18;;;9.18;;
78716;SDS011;68045;50.042;14.432;2023-05-20T11:51:29;13.23;;;9.50;;
78716;SDS011;68045;50.042;14.432;2023-05-20T11:55:30;13.45;;;9.80;;
78716;SDS011;68045;50.042;14.432;2023-05-20T11:59:33;12.45;;;10.40;;
78716;SDS011;68045;50.042;14.432;2023-05-20T12:03:34;14.90;;;9.57;;
78716;SDS011;68045;50.042;14.432;2023-05-20T12:07:36;16.70;;;10.30;;
78716;SDS011;68045;50.042;14.432;2023-05-20T12:11:37;13.68;;;9.43;;
78716;SDS011;68045;50.042;14.432;2023-05-20T12:15:40;13.70;;;9.70;;
78716;SDS011;68045;50.042;14.432;2023-05-20T12:19:41;13.88;;;9.68;;
78716;SDS011;68045;50.042;14.432;2023-05-20T12:23:41;14.25;;;10.05;;
78716;SDS011;68045;50.042;14.432;2023-05-20T12:27:42;16.88;;;10.63;;
78716;SDS011;68045;50.042;14.432;2023-05-20T12:31:48;13.45;;;9.68;;
78716;SDS011;68045;50.042;14.432;2023-05-20T12:35:48;12.00;;;9.38;;
78716;SDS011;68045;50.042;14.432;2023-05-20T12:39:49;15.75;;;9.52;;
78716;SDS011;68045;50.042;14.432;2023-05-20T12:43:50;14.73;;;9.43;;
78716;SDS011;68045;50.042;14.432;2023-05-20T12:47:52;14.90;;;9.98;;
78716;SDS011;68045;50.042;14.432;2023-05-20T12:51:54;13.18;;;9.57;;
78716;SDS011;68045;50.042;14.432;2023-05-20T12:55:55;15.43;;;9.00;;
78716;SDS011;68045;50.042;14.432;2023-05-20T12:59:56;13.25;;;9.02;;
78716;SDS011;68045;50.042;14.432;2023-05-20T13:03:56;13.73;;;8.40;;
78716;SDS011;68045;50.042;14.432;2023-05-20T13:07:57;12.85;;;8.65;;
78716;SDS011;68045;50.042;14.432;2023-05-20T13:11:58;10.90;;;8.10;;
78716;SDS011;68045;50.042;14.432;2023-05-20T13:16:00;11.20;;;7.90;;
78716;SDS011;68045;50.042;14.432;2023-05-20T13:20:02;11.65;;;8.48;;
78716;SDS011;68045;50.042;14.432;2023-05-20T13:24:04;12.27;;;8.95;;
78716;SDS011;68045;50.042;14.432;2023-05-20T13:28:05;12.88;;;8.63;;
78716;SDS011;68045;50.042;14.432;2023-05-20T13:32:07;12.73;;;8.30;;
78716;SDS011;68045;50.042;14.432;2023-05-20T13:36:08;12.00;;;8.63;;
78716;SDS011;68045;50.042;14.432;2023-05-20T13:40:10;12.40;;;8.65;;
78716;SDS011;68045;50.042;14.432;2023-05-20T13:44:11;12.60;;;8.20;;
78716;SDS011;68045;50.042;14.432;2023-05-20T13:48:12;11.45;;;9.02;;
78716;SDS011;68045;50.042;14.432;2023-05-20T13:52:13;10.95;;;7.72;;
78716;SDS011;68045;50.042;14.432;2023-05-20T13:56:14;14.65;;;8.45;;
78716;SDS011;68045;50.042;14.432;2023-05-20T14:00:15;12.98;;;8.18;;
78716;SDS011;68045;50.042;14.432;2023-05-20T14:04:16;12.10;;;7.85;;
78716;SDS011;68045;50.042;14.432;2023-05-20T14:08:17;12.43;;;8.10;;
78716;SDS011;68045;50.042;14.432;2023-05-20T14:12:18;10.95;;;7.95;;
78716;SDS011;68045;50.042;14.432;2023-05-20T14:16:19;10.68;;;7.82;;
78716;SDS011;68045;50.042;14.432;2023-05-20T14:20:20;10.45;;;7.30;;
78716;SDS011;68045;50.042;14.432;2023-05-20T14:24:21;13.85;;;8.02;;
78716;SDS011;68045;50.042;14.432;2023-05-20T14:28:22;10.07;;;7.28;;
78716;SDS011;68045;50.042;14.432;2023-05-20T14:32:23;12.38;;;8.10;;
78716;SDS011;68045;50.042;14.432;2023-05-20T14:36:24;11.18;;;7.45;;
78716;SDS011;68045;50.042;14.432;2023-05-20T14:40:25;9.32;;;7.07;;
78716;SDS011;68045;50.042;14.432;2023-05-20T14:44:26;9.63;;;6.78;;
78716;SDS011;68045;50.042;14.432;2023-05-20T14:48:26;12.55;;;7.68;;
78716;SDS011;68045;50.042;14.432;2023-05-20T14:52:27;12.18;;;8.00;;
78716;SDS011;68045;50.042;14.432;2023-05-20T14:56:28;10.70;;;6.97;;
78716;SDS011;68045;50.042;14.432;2023-05-20T15:00:30;13.65;;;7.35;;
78716;SDS011;68045;50.042;14.432;2023-05-20T15:04:32;10.23;;;6.70;;
78716;SDS011;68045;50.042;14.432;2023-05-20T15:08:33;9.90;;;7.20;;
78716;SDS011;68045;50.042;14.432;2023-05-20T15:12:34;13.82;;;7.47;;
78716;SDS011;68045;50.042;14.432;2023-05-20T15:16:35;12.50;;;6.90;;
78716;SDS011;68045;50.042;14.432;2023-05-20T15:20:36;12.27;;;6.82;;
78716;SDS011;68045;50.042;14.432;2023-05-20T15:24:37;10.07;;;7.13;;
78716;SDS011;68045;50.042;14.432;2023-05-20T15:28:38;10.05;;;6.53;;
78716;SDS011;68045;50.042;14.432;2023-05-20T15:32:40;11.48;;;7.55;;
78716;SDS011;68045;50.042;14.432;2023-05-20T15:36:42;11.52;;;6.70;;
78716;SDS011;68045;50.042;14.432;2023-05-20T15:40:43;10.45;;;6.82;;
78716;SDS011;68045;50.042;14.432;2023-05-20T15:44:44;8.45;;;6.22;;
78716;SDS011;68045;50.042;14.432;2023-05-20T15:48:45;12.32;;;7.07;;
78716;SDS011;68045;50.042;14.432;2023-05-20T15:52:46;11.27;;;6.35;;
78716;SDS011;68045;50.042;14.432;2023-05-20T15:56:47;13.02;;;6.68;;
78716;SDS011;68045;50.042;14.432;2023-05-20T16:00:48;11.43;;;6.55;;
78716;SDS011;68045;50.042;14.432;2023-05-20T16:04:49;10.63;;;6.93;;
78716;SDS011;68045;50.042;14.432;2023-05-20T16:08:50;12.98;;;7.03;;
78716;SDS011;68045;50.042;14.432;2023-05-20T16:12:51;9.75;;;6.63;;
78716;SDS011;68045;50.042;14.432;2023-05-20T16:16:52;9.82;;;6.63;;
78716;SDS011;68045;50.042;14.432;2023-05-20T16:20:53;13.52;;;6.57;;
78716;SDS011;68045;50.042;14.432;2023-05-20T16:24:53;11.18;;;6.72;;
78716;SDS011;68045;50.042;14.432;2023-05-20T16:28:54;9.77;;;6.68;;
78716;SDS011;68045;50.042;14.432;2023-05-20T16:32:55;13.77;;;6.68;;
78716;SDS011;68045;50.042;14.432;2023-05-20T16:36:56;11.23;;;6.45;;
78716;SDS011;68045;50.042;14.432;2023-05-20T16:40:58;8.88;;;6.70;;
78716;SDS011;68045;50.042;14.432;2023-05-20T16:44:58;10.10;;;7.07;;
78716;SDS011;68045;50.042;14.432;2023-05-20T16:48:59;12.25;;;7.50;;
78716;SDS011;68045;50.042;14.432;2023-05-20T16:53:01;11.98;;;7.07;;
78716;SDS011;68045;50.042;14.432;2023-05-20T16:57:02;10.88;;;8.15;;
78716;SDS011;68045;50.042;14.432;2023-05-20T17:05:04;10.73;;;6.90;;
78716;SDS011;68045;50.042;14.432;2023-05-20T17:09:06;8.90;;;6.53;;
78716;SDS011;68045;50.042;14.432;2023-05-20T17:17:08;9.20;;;6.50;;
78716;SDS011;68045;50.042;14.432;2023-05-20T17:21:09;9.95;;;7.25;;
78716;SDS011;68045;50.042;14.432;2023-05-20T17:25:10;9.23;;;6.65;;
78716;SDS011;68045;50.042;14.432;2023-05-20T17:29:11;9.00;;;6.70;;
78716;SDS011;68045;50.042;14.432;2023-05-20T17:33:12;11.93;;;7.10;;
78716;SDS011;68045;50.042;14.432;2023-05-20T17:37:13;10.80;;;6.63;;
78716;SDS011;68045;50.042;14.432;2023-05-20T17:41:14;10.25;;;6.47;;
78716;SDS011;68045;50.042;14.432;2023-05-20T17:45:17;9.48;;;6.53;;
78716;SDS011;68045;50.042;14.432;2023-05-20T17:49:18;12.75;;;7.15;;
78716;SDS011;68045;50.042;14.432;2023-05-20T17:53:19;10.73;;;6.55;;
78716;SDS011;68045;50.042;14.432;2023-05-20T17:57:20;11.30;;;6.93;;
78716;SDS011;68045;50.042;14.432;2023-05-20T18:01:21;11.40;;;6.55;;
78716;SDS011;68045;50.042;14.432;2023-05-20T18:05:23;12.45;;;7.75;;
78716;SDS011;68045;50.042;14.432;2023-05-20T18:09:24;12.93;;;7.35;;
78716;SDS011;68045;50.042;14.432;2023-05-20T18:13:25;8.68;;;6.30;;
78716;SDS011;68045;50.042;14.432;2023-05-20T18:17:26;11.00;;;7.20;;
78716;SDS011;68045;50.042;14.432;2023-05-20T18:21:27;10.98;;;7.22;;
78716;SDS011;68045;50.042;14.432;2023-05-20T18:25:28;12.80;;;7.45;;
78716;SDS011;68045;50.042;14.432;2023-05-20T18:29:29;12.57;;;8.18;;
78716;SDS011;68045;50.042;14.432;2023-05-20T18:33:30;13.48;;;8.10;;
78716;SDS011;68045;50.042;14.432;2023-05-20T18:37:31;11.18;;;7.88;;
78716;SDS011;68045;50.042;14.432;2023-05-20T18:41:32;13.30;;;9.13;;
78716;SDS011;68045;50.042;14.432;2023-05-20T18:45:33;14.20;;;8.82;;
78716;SDS011;68045;50.042;14.432;2023-05-20T18:49:34;17.30;;;10.45;;
78716;SDS011;68045;50.042;14.432;2023-05-20T18:53:35;19.70;;;11.20;;
78716;SDS011;68045;50.042;14.432;2023-05-20T18:57:36;19.50;;;11.27;;
78716;SDS011;68045;50.042;14.432;2023-05-20T19:01:37;18.35;;;11.77;;
78716;SDS011;68045;50.042;14.432;2023-05-20T19:05:38;24.08;;;13.38;;
78716;SDS011;68045;50.042;14.432;2023-05-20T19:09:39;21.08;;;12.90;;
78716;SDS011;68045;50.042;14.432;2023-05-20T19:13:40;23.52;;;13.82;;
78716;SDS011;68045;50.042;14.432;2023-05-20T19:17:41;25.17;;;14.52;;
78716;SDS011;68045;50.042;14.432;2023-05-20T19:21:42;27.45;;;16.50;;
78716;SDS011;68045;50.042;14.432;2023-05-20T19:25:43;25.73;;;15.65;;
78716;SDS011;68045;50.042;14.432;2023-05-20T19:29:44;27.98;;;15.55;;
78716;SDS011;68045;50.042;14.432;2023-05-20T19:33:49;26.27;;;14.75;;
78716;SDS011;68045;50.042;14.432;2023-05-20T19:37:50;28.95;;;15.75;;
78716;SDS011;68045;50.042;14.432;2023-05-20T19:41:52;27.92;;;16.30;;
78716;SDS011;68045;50.042;14.432;2023-05-20T19:45:53;30.38;;;15.65;;
78716;SDS011;68045;50.042;14.432;2023-05-20T19:49:54;28.10;;;15.15;;
78716;SDS011;68045;50.042;14.432;2023-05-20T19:53:55;28.35;;;16.45;;
78716;SDS011;68045;50.042;14.432;2023-05-20T19:57:56;29.17;;;14.93;;
78716;SDS011;68045;50.042;14.432;2023-05-20T20:01:57;30.80;;;15.43;;
78716;SDS011;68045;50.042;14.432;2023-05-20T20:06:02;28.85;;;15.95;;
78716;SDS011;68045;50.042;14.432;2023-05-20T20:10:03;28.80;;;16.63;;
78716;SDS011;68045;50.042;14.432;2023-05-20T20:14:04;25.42;;;15.13;;
78716;SDS011;68045;50.042;14.432;2023-05-20T20:18:05;30.10;;;15.80;;
78716;SDS011;68045;50.042;14.432;2023-05-20T20:22:07;31.90;;;16.63;;
78716;SDS011;68045;50.042;14.432;2023-05-20T20:26:08;30.92;;;17.27;;
78716;SDS011;68045;50.042;14.432;2023-05-20T20:30:10;26.05;;;15.55;;
78716;SDS011;68045;50.042;14.432;2023-05-20T20:34:12;30.80;;;15.75;;
78716;SDS011;68045;50.042;14.432;2023-05-20T20:38:13;32.72;;;17.98;;
78716;SDS011;68045;50.042;14.432;2023-05-20T20:42:14;30.10;;;17.20;;
78716;SDS011;68045;50.042;14.432;2023-05-20T20:46:15;33.60;;;18.30;;
78716;SDS011;68045;50.042;14.432;2023-05-20T20:50:16;30.35;;;17.60;;
78716;SDS011;68045;50.042;14.432;2023-05-20T20:54:19;33.22;;;16.73;;
78716;SDS011;68045;50.042;14.432;2023-05-20T20:58:20;30.27;;;17.00;;
78716;SDS011;68045;50.042;14.432;2023-05-20T21:02:22;28.40;;;17.65;;
78716;SDS011;68045;50.042;14.432;2023-05-20T21:06:23;35.75;;;17.50;;
78716;SDS011;68045;50.042;14.432;2023-05-20T21:10:24;31.20;;;16.70;;
78716;SDS011;68045;50.042;14.432;2023-05-20T21:14:29;30.83;;;16.67;;
78716;SDS011;68045;50.042;14.432;2023-05-20T21:18:30;31.40;;;16.48;;
78716;SDS011;68045;50.042;14.432;2023-05-20T21:22:31;31.63;;;17.67;;
78716;SDS011;68045;50.042;14.432;2023-05-20T21:26:31;34.17;;;18.67;;
78716;SDS011;68045;50.042;14.432;2023-05-20T21:30:32;32.97;;;18.33;;
78716;SDS011;68045;50.042;14.432;2023-05-20T21:34:33;30.35;;;17.25;;
78716;SDS011;68045;50.042;14.432;2023-05-20T21:38:34;30.85;;;18.55;;
78716;SDS011;68045;50.042;14.432;2023-05-20T21:42:35;36.40;;;18.15;;
78716;SDS011;68045;50.042;14.432;2023-05-20T21:46:37;30.38;;;17.75;;
78716;SDS011;68045;50.042;14.432;2023-05-20T21:50:38;36.25;;;16.02;;
78716;SDS011;68045;50.042;14.432;2023-05-20T21:54:38;30.23;;;17.38;;
78716;SDS011;68045;50.042;14.432;2023-05-20T21:58:39;32.00;;;18.77;;
78716;SDS011;68045;50.042;14.432;2023-05-20T22:02:41;27.83;;;17.48;;
78716;SDS011;68045;50.042;14.432;2023-05-20T22:06:42;28.65;;;16.13;;
78716;SDS011;68045;50.042;14.432;2023-05-20T22:10:42;30.33;;;16.92;;
78716;SDS011;68045;50.042;14.432;2023-05-20T22:14:43;27.88;;;16.88;;
78716;SDS011;68045;50.042;14.432;2023-05-20T22:18:44;31.60;;;18.17;;
78716;SDS011;68045;50.042;14.432;2023-05-20T22:22:49;32.08;;;17.95;;
78716;SDS011;68045;50.042;14.432;2023-05-20T22:26:50;32.95;;;18.33;;
78716;SDS011;68045;50.042;14.432;2023-05-20T22:30:50;33.17;;;18.55;;
78716;SDS011;68045;50.042;14.432;2023-05-20T22:34:51;32.25;;;17.65;;
78716;SDS011;68045;50.042;14.432;2023-05-20T22:38:57;31.15;;;17.48;;
78716;SDS011;68045;50.042;14.432;2023-05-20T22:42:58;30.45;;;17.52;;
78716;SDS011;68045;50.042;14.432;2023-05-20T22:46:59;33.47;;;18.48;;
78716;SDS011;68045;50.042;14.432;2023-05-20T22:51:00;29.88;;;18.85;;
78716;SDS011;68045;50.042;14.432;2023-05-20T22:55:03;30.38;;;18.40;;
78716;SDS011;68045;50.042;14.432;2023-05-20T22:59:04;38.42;;;18.35;;
78716;SDS011;68045;50.042;14.432;2023-05-20T23:03:05;40.28;;;18.63;;
78716;SDS011;68045;50.042;14.432;2023-05-20T23:07:06;30.15;;;18.27;;
78716;SDS011;68045;50.042;14.432;2023-05-20T23:11:07;34.00;;;18.25;;
78716;SDS011;68045;50.042;14.432;2023-05-20T23:15:08;28.02;;;17.52;;
78716;SDS011;68045;50.042;14.432;2023-05-20T23:19:09;27.92;;;16.38;;
78716;SDS011;68045;50.042;14.432;2023-05-20T23:23:10;33.45;;;18.08;;
78716;SDS011;68045;50.042;14.432;2023-05-20T23:27:11;31.27;;;18.00;;
78716;SDS011;68045;50.042;14.432;2023-05-20T23:31:12;32.78;;;18.67;;
78716;SDS011;68045;50.042;14.432;2023-05-20T23:35:14;31.95;;;18.77;;
78716;SDS011;68045;50.042;14.432;2023-05-20T23:39:15;33.88;;;19.02;;
78716;SDS011;68045;50.042;14.432;2023-05-20T23:43:16;36.20;;;19.48;;